sensor_id;sensor_type;location;lat;lon;timestamp;P1;durP1;ratioP1;P2;durP2;ratioP2
60582;SDS011;46415;47.536;19.066;2024-03-07T00:00:53;9.30;;;6.28;;
60582;SDS011;46415;47.536;19.066;2024-03-07T00:03:57;9.27;;;5.70;;
60582;SDS011;46415;47.536;19.066;2024-03-07T00:07:00;9.70;;;6.37;;
60582;SDS011;46415;47.536;19.066;2024-03-07T00:10:03;9.25;;;5.90;;
60582;SDS011;46415;47.536;19.066;2024-03-07T00:13:09;9.27;;;6.07;;
60582;SDS011;46415;47.536;19.066;2024-03-07T00:16:12;7.65;;;6.32;;
60582;SDS011;46415;47.536;19.066;2024-03-07T00:19:15;9.02;;;6.07;;
60582;SDS011;46415;47.536;19.066;2024-03-07T00:22:18;10.70;;;6.37;;
60582;SDS011;46415;47.536;19.066;2024-03-07T00:25:21;8.15;;;5.85;;
60582;SDS011;46415;47.536;19.066;2024-03-07T00:28:24;8.57;;;5.72;;
60582;SDS011;46415;47.536;19.066;2024-03-07T00:31:31;9.10;;;5.97;;
60582;SDS011;46415;47.536;19.066;2024-03-07T00:34:34;9.43;;;6.30;;
60582;SDS011;46415;47.536;19.066;2024-03-07T00:37:37;10.82;;;7.00;;
60582;SDS011;46415;47.536;19.066;2024-03-07T00:40:40;7.90;;;6.12;;
60582;SDS011;46415;47.536;19.066;2024-03-07T00:43:42;8.75;;;6.18;;
60582;SDS011;46415;47.536;19.066;2024-03-07T00:46:46;8.18;;;5.60;;
60582;SDS011;46415;47.536;19.066;2024-03-07T00:49:49;11.60;;;6.12;;
60582;SDS011;46415;47.536;19.066;2024-03-07T00:52:52;11.27;;;6.25;;
60582;SDS011;46415;47.536;19.066;2024-03-07T00:55:54;10.27;;;6.05;;
60582;SDS011;46415;47.536;19.066;2024-03-07T00:58:58;9.45;;;6.05;;
60582;SDS011;46415;47.536;19.066;2024-03-07T01:02:00;10.23;;;6.00;;
60582;SDS011;46415;47.536;19.066;2024-03-07T01:05:04;8.50;;;5.75;;
60582;SDS011;46415;47.536;19.066;2024-03-07T01:08:12;8.07;;;5.30;;
60582;SDS011;46415;47.536;19.066;2024-03-07T01:11:15;8.50;;;5.25;;
60582;SDS011;46415;47.536;19.066;2024-03-07T01:14:18;7.45;;;5.12;;
60582;SDS011;46415;47.536;19.066;2024-03-07T01:17:21;8.77;;;5.30;;
60582;SDS011;46415;47.536;19.066;2024-03-07T01:20:24;7.37;;;4.93;;
60582;SDS011;46415;47.536;19.066;2024-03-07T01:23:28;7.47;;;5.40;;
60582;SDS011;46415;47.536;19.066;2024-03-07T01:26:31;8.32;;;5.45;;
60582;SDS011;46415;47.536;19.066;2024-03-07T01:29:36;8.02;;;5.43;;
60582;SDS011;46415;47.536;19.066;2024-03-07T01:32:38;8.27;;;4.97;;
60582;SDS011;46415;47.536;19.066;2024-03-07T01:35:42;10.55;;;5.03;;
60582;SDS011;46415;47.536;19.066;2024-03-07T01:38:45;8.00;;;5.00;;
60582;SDS011;46415;47.536;19.066;2024-03-07T01:41:48;8.20;;;5.10;;
60582;SDS011;46415;47.536;19.066;2024-03-07T01:44:51;9.25;;;5.25;;
60582;SDS011;46415;47.536;19.066;2024-03-07T01:47:54;7.53;;;4.60;;
60582;SDS011;46415;47.536;19.066;2024-03-07T01:51:00;7.07;;;4.90;;
60582;SDS011;46415;47.536;19.066;2024-03-07T01:54:07;7.25;;;4.85;;
60582;SDS011;46415;47.536;19.066;2024-03-07T01:57:11;8.23;;;4.97;;
60582;SDS011;46415;47.536;19.066;2024-03-07T02:00:16;7.05;;;5.30;;
60582;SDS011;46415;47.536;19.066;2024-03-07T02:03:20;8.52;;;4.93;;
60582;SDS011;46415;47.536;19.066;2024-03-07T02:06:23;6.50;;;4.50;;
60582;SDS011;46415;47.536;19.066;2024-03-07T02:09:26;7.68;;;4.97;;
60582;SDS011;46415;47.536;19.066;2024-03-07T02:12:29;6.03;;;4.40;;
60582;SDS011;46415;47.536;19.066;2024-03-07T02:15:33;7.47;;;5.30;;
60582;SDS011;46415;47.536;19.066;2024-03-07T02:18:37;7.00;;;4.30;;
60582;SDS011;46415;47.536;19.066;2024-03-07T02:21:41;6.10;;;4.18;;
60582;SDS011;46415;47.536;19.066;2024-03-07T02:24:44;5.80;;;4.20;;
60582;SDS011;46415;47.536;19.066;2024-03-07T02:27:48;5.32;;;4.18;;
60582;SDS011;46415;47.536;19.066;2024-03-07T02:30:51;7.65;;;4.82;;
60582;SDS011;46415;47.536;19.066;2024-03-07T02:33:54;5.12;;;3.90;;
60582;SDS011;46415;47.536;19.066;2024-03-07T02:36:56;5.80;;;4.28;;
60582;SDS011;46415;47.536;19.066;2024-03-07T02:39:59;5.70;;;3.90;;
60582;SDS011;46415;47.536;19.066;2024-03-07T02:43:03;5.60;;;3.92;;
60582;SDS011;46415;47.536;19.066;2024-03-07T02:46:07;4.68;;;3.65;;
60582;SDS011;46415;47.536;19.066;2024-03-07T02:49:10;6.32;;;4.45;;
60582;SDS011;46415;47.536;19.066;2024-03-07T02:52:13;5.28;;;3.83;;
60582;SDS011;46415;47.536;19.066;2024-03-07T02:55:16;6.25;;;4.03;;
60582;SDS011;46415;47.536;19.066;2024-03-07T02:58:19;4.20;;;3.80;;
60582;SDS011;46415;47.536;19.066;2024-03-07T03:01:22;6.12;;;3.83;;
60582;SDS011;46415;47.536;19.066;2024-03-07T03:04:24;5.57;;;3.85;;
60582;SDS011;46415;47.536;19.066;2024-03-07T03:07:27;6.53;;;4.03;;
60582;SDS011;46415;47.536;19.066;2024-03-07T03:10:30;5.25;;;3.95;;
60582;SDS011;46415;47.536;19.066;2024-03-07T03:13:33;4.55;;;3.45;;
60582;SDS011;46415;47.536;19.066;2024-03-07T03:16:36;5.30;;;3.58;;
60582;SDS011;46415;47.536;19.066;2024-03-07T03:19:50;5.45;;;3.53;;
60582;SDS011;46415;47.536;19.066;2024-03-07T03:22:54;4.55;;;3.97;;
60582;SDS011;46415;47.536;19.066;2024-03-07T03:26:00;4.15;;;3.53;;
60582;SDS011;46415;47.536;19.066;2024-03-07T03:29:03;4.87;;;3.80;;
60582;SDS011;46415;47.536;19.066;2024-03-07T03:32:06;4.97;;;3.65;;
60582;SDS011;46415;47.536;19.066;2024-03-07T03:35:10;4.03;;;3.42;;
60582;SDS011;46415;47.536;19.066;2024-03-07T03:38:15;4.78;;;3.50;;
60582;SDS011;46415;47.536;19.066;2024-03-07T03:41:20;5.07;;;3.58;;
60582;SDS011;46415;47.536;19.066;2024-03-07T03:44:23;4.93;;;3.78;;
60582;SDS011;46415;47.536;19.066;2024-03-07T03:47:26;3.50;;;3.20;;
60582;SDS011;46415;47.536;19.066;2024-03-07T03:50:31;4.32;;;3.30;;
60582;SDS011;46415;47.536;19.066;2024-03-07T03:53:34;4.55;;;3.72;;
60582;SDS011;46415;47.536;19.066;2024-03-07T03:56:39;4.25;;;3.53;;
60582;SDS011;46415;47.536;19.066;2024-03-07T03:59:42;4.45;;;3.30;;
60582;SDS011;46415;47.536;19.066;2024-03-07T04:02:47;3.75;;;2.90;;
60582;SDS011;46415;47.536;19.066;2024-03-07T04:05:51;4.93;;;3.42;;
60582;SDS011;46415;47.536;19.066;2024-03-07T04:08:54;4.95;;;3.37;;
60582;SDS011;46415;47.536;19.066;2024-03-07T04:11:58;4.43;;;3.45;;
60582;SDS011;46415;47.536;19.066;2024-03-07T04:15:02;4.40;;;3.72;;
60582;SDS011;46415;47.536;19.066;2024-03-07T04:18:06;8.82;;;3.95;;
60582;SDS011;46415;47.536;19.066;2024-03-07T04:21:10;4.18;;;3.50;;
60582;SDS011;46415;47.536;19.066;2024-03-07T04:24:13;3.53;;;3.08;;
60582;SDS011;46415;47.536;19.066;2024-03-07T04:27:16;4.55;;;3.40;;
60582;SDS011;46415;47.536;19.066;2024-03-07T04:30:19;4.25;;;3.30;;
60582;SDS011;46415;47.536;19.066;2024-03-07T04:33:22;3.90;;;3.05;;
60582;SDS011;46415;47.536;19.066;2024-03-07T04:36:26;6.70;;;3.72;;
60582;SDS011;46415;47.536;19.066;2024-03-07T04:39:28;6.57;;;3.25;;
60582;SDS011;46415;47.536;19.066;2024-03-07T04:42:38;6.78;;;3.95;;
60582;SDS011;46415;47.536;19.066;2024-03-07T04:45:41;5.05;;;3.65;;
60582;SDS011;46415;47.536;19.066;2024-03-07T04:48:44;5.62;;;3.45;;
60582;SDS011;46415;47.536;19.066;2024-03-07T04:51:47;4.55;;;3.28;;
60582;SDS011;46415;47.536;19.066;2024-03-07T04:54:50;3.85;;;3.22;;
60582;SDS011;46415;47.536;19.066;2024-03-07T04:57:53;4.05;;;3.47;;
60582;SDS011;46415;47.536;19.066;2024-03-07T05:00:56;6.20;;;3.67;;
60582;SDS011;46415;47.536;19.066;2024-03-07T05:03:59;4.50;;;3.25;;
60582;SDS011;46415;47.536;19.066;2024-03-07T05:07:03;4.85;;;3.30;;
60582;SDS011;46415;47.536;19.066;2024-03-07T05:10:06;4.47;;;3.40;;
60582;SDS011;46415;47.536;19.066;2024-03-07T05:13:11;5.72;;;3.60;;
60582;SDS011;46415;47.536;19.066;2024-03-07T05:16:13;4.43;;;3.33;;
60582;SDS011;46415;47.536;19.066;2024-03-07T05:19:16;4.47;;;3.70;;
60582;SDS011;46415;47.536;19.066;2024-03-07T05:22:21;4.05;;;3.08;;
60582;SDS011;46415;47.536;19.066;2024-03-07T05:25:28;6.15;;;3.50;;
60582;SDS011;46415;47.536;19.066;2024-03-07T05:28:31;5.20;;;3.45;;
60582;SDS011;46415;47.536;19.066;2024-03-07T05:31:34;4.30;;;3.50;;
60582;SDS011;46415;47.536;19.066;2024-03-07T05:34:38;5.87;;;3.80;;
60582;SDS011;46415;47.536;19.066;2024-03-07T05:37:43;4.85;;;3.58;;
60582;SDS011;46415;47.536;19.066;2024-03-07T05:40:49;6.05;;;3.50;;
60582;SDS011;46415;47.536;19.066;2024-03-07T05:43:52;4.15;;;3.15;;
60582;SDS011;46415;47.536;19.066;2024-03-07T05:46:55;5.95;;;3.65;;
60582;SDS011;46415;47.536;19.066;2024-03-07T05:49:58;4.75;;;3.40;;
60582;SDS011;46415;47.536;19.066;2024-03-07T05:53:01;6.07;;;3.28;;
60582;SDS011;46415;47.536;19.066;2024-03-07T05:56:04;4.65;;;3.62;;
60582;SDS011;46415;47.536;19.066;2024-03-07T05:59:07;3.78;;;3.10;;
60582;SDS011;46415;47.536;19.066;2024-03-07T06:02:12;4.65;;;3.10;;
60582;SDS011;46415;47.536;19.066;2024-03-07T06:05:18;6.05;;;3.75;;
60582;SDS011;46415;47.536;19.066;2024-03-07T06:08:21;4.45;;;3.65;;
60582;SDS011;46415;47.536;19.066;2024-03-07T06:11:25;4.68;;;3.72;;
60582;SDS011;46415;47.536;19.066;2024-03-07T06:14:28;4.40;;;3.30;;
60582;SDS011;46415;47.536;19.066;2024-03-07T06:17:31;3.72;;;3.10;;
60582;SDS011;46415;47.536;19.066;2024-03-07T06:20:35;5.68;;;3.47;;
60582;SDS011;46415;47.536;19.066;2024-03-07T06:23:38;6.87;;;3.50;;
60582;SDS011;46415;47.536;19.066;2024-03-07T06:27:26;4.62;;;3.58;;
60582;SDS011;46415;47.536;19.066;2024-03-07T06:30:30;3.42;;;3.00;;
60582;SDS011;46415;47.536;19.066;2024-03-07T06:33:33;4.47;;;3.60;;
60582;SDS011;46415;47.536;19.066;2024-03-07T06:36:37;5.05;;;3.35;;
60582;SDS011;46415;47.536;19.066;2024-03-07T06:39:40;8.65;;;4.00;;
60582;SDS011;46415;47.536;19.066;2024-03-07T06:42:43;4.00;;;3.20;;
60582;SDS011;46415;47.536;19.066;2024-03-07T06:45:46;4.95;;;3.53;;
60582;SDS011;46415;47.536;19.066;2024-03-07T06:48:49;3.62;;;3.15;;
60582;SDS011;46415;47.536;19.066;2024-03-07T06:51:52;5.03;;;3.60;;
60582;SDS011;46415;47.536;19.066;2024-03-07T06:54:57;4.03;;;3.22;;
60582;SDS011;46415;47.536;19.066;2024-03-07T06:58:02;4.22;;;3.35;;
60582;SDS011;46415;47.536;19.066;2024-03-07T07:01:07;4.53;;;3.67;;
60582;SDS011;46415;47.536;19.066;2024-03-07T07:04:13;5.85;;;3.67;;
60582;SDS011;46415;47.536;19.066;2024-03-07T07:07:17;4.93;;;3.45;;
60582;SDS011;46415;47.536;19.066;2024-03-07T07:10:20;4.35;;;3.55;;
60582;SDS011;46415;47.536;19.066;2024-03-07T07:13:26;4.87;;;3.53;;
60582;SDS011;46415;47.536;19.066;2024-03-07T07:16:29;5.20;;;3.55;;
60582;SDS011;46415;47.536;19.066;2024-03-07T07:19:34;3.53;;;3.08;;
60582;SDS011;46415;47.536;19.066;2024-03-07T07:22:37;3.97;;;3.10;;
60582;SDS011;46415;47.536;19.066;2024-03-07T07:25:40;4.65;;;3.58;;
60582;SDS011;46415;47.536;19.066;2024-03-07T07:28:43;4.47;;;3.58;;
60582;SDS011;46415;47.536;19.066;2024-03-07T07:31:46;4.43;;;3.78;;
60582;SDS011;46415;47.536;19.066;2024-03-07T07:34:49;4.10;;;3.37;;
60582;SDS011;46415;47.536;19.066;2024-03-07T07:37:52;4.20;;;3.80;;
60582;SDS011;46415;47.536;19.066;2024-03-07T07:40:56;6.40;;;3.70;;
60582;SDS011;46415;47.536;19.066;2024-03-07T07:44:00;5.53;;;3.80;;
60582;SDS011;46415;47.536;19.066;2024-03-07T07:47:02;5.20;;;3.75;;
60582;SDS011;46415;47.536;19.066;2024-03-07T07:50:07;5.45;;;3.92;;
60582;SDS011;46415;47.536;19.066;2024-03-07T07:53:20;6.28;;;3.70;;
60582;SDS011;46415;47.536;19.066;2024-03-07T07:56:23;7.32;;;4.00;;
60582;SDS011;46415;47.536;19.066;2024-03-07T07:59:27;4.78;;;3.80;;
60582;SDS011;46415;47.536;19.066;2024-03-07T08:02:30;3.62;;;3.28;;
60582;SDS011;46415;47.536;19.066;2024-03-07T08:05:34;3.58;;;3.22;;
60582;SDS011;46415;47.536;19.066;2024-03-07T08:08:38;4.37;;;3.53;;
60582;SDS011;46415;47.536;19.066;2024-03-07T08:11:42;3.58;;;3.28;;
60582;SDS011;46415;47.536;19.066;2024-03-07T08:14:45;4.60;;;3.50;;
60582;SDS011;46415;47.536;19.066;2024-03-07T08:17:48;4.62;;;3.45;;
60582;SDS011;46415;47.536;19.066;2024-03-07T08:20:52;3.65;;;3.28;;
60582;SDS011;46415;47.536;19.066;2024-03-07T08:23:58;4.72;;;3.53;;
60582;SDS011;46415;47.536;19.066;2024-03-07T08:27:01;5.28;;;3.62;;
60582;SDS011;46415;47.536;19.066;2024-03-07T08:30:05;4.35;;;3.85;;
60582;SDS011;46415;47.536;19.066;2024-03-07T08:33:09;3.40;;;3.10;;
60582;SDS011;46415;47.536;19.066;2024-03-07T08:36:13;4.62;;;3.33;;
60582;SDS011;46415;47.536;19.066;2024-03-07T08:39:16;4.85;;;3.72;;
60582;SDS011;46415;47.536;19.066;2024-03-07T08:42:19;4.15;;;3.62;;
60582;SDS011;46415;47.536;19.066;2024-03-07T08:45:22;3.53;;;3.20;;
60582;SDS011;46415;47.536;19.066;2024-03-07T08:48:25;3.67;;;3.37;;
60582;SDS011;46415;47.536;19.066;2024-03-07T08:51:29;4.10;;;3.70;;
60582;SDS011;46415;47.536;19.066;2024-03-07T08:54:32;3.50;;;3.08;;
60582;SDS011;46415;47.536;19.066;2024-03-07T08:57:36;3.58;;;3.28;;
60582;SDS011;46415;47.536;19.066;2024-03-07T09:00:40;3.70;;;3.35;;
60582;SDS011;46415;47.536;19.066;2024-03-07T09:03:42;3.53;;;3.22;;
60582;SDS011;46415;47.536;19.066;2024-03-07T09:06:45;3.55;;;3.12;;
60582;SDS011;46415;47.536;19.066;2024-03-07T09:09:49;4.12;;;3.53;;
60582;SDS011;46415;47.536;19.066;2024-03-07T09:12:52;4.70;;;3.65;;
60582;SDS011;46415;47.536;19.066;2024-03-07T09:15:57;3.50;;;3.15;;
60582;SDS011;46415;47.536;19.066;2024-03-07T09:19:00;4.10;;;3.03;;
60582;SDS011;46415;47.536;19.066;2024-03-07T09:22:03;4.05;;;3.30;;
60582;SDS011;46415;47.536;19.066;2024-03-07T09:25:06;4.37;;;3.78;;
60582;SDS011;46415;47.536;19.066;2024-03-07T09:28:10;3.70;;;3.28;;
60582;SDS011;46415;47.536;19.066;2024-03-07T09:31:16;3.85;;;3.00;;
60582;SDS011;46415;47.536;19.066;2024-03-07T09:34:20;3.50;;;3.20;;
60582;SDS011;46415;47.536;19.066;2024-03-07T09:37:24;4.07;;;3.47;;
60582;SDS011;46415;47.536;19.066;2024-03-07T09:40:26;6.10;;;3.70;;
60582;SDS011;46415;47.536;19.066;2024-03-07T09:43:30;5.57;;;3.53;;
60582;SDS011;46415;47.536;19.066;2024-03-07T09:46:35;5.00;;;4.30;;
60582;SDS011;46415;47.536;19.066;2024-03-07T09:49:39;4.20;;;3.80;;
60582;SDS011;46415;47.536;19.066;2024-03-07T09:52:42;4.32;;;3.92;;
60582;SDS011;46415;47.536;19.066;2024-03-07T09:55:46;4.35;;;3.87;;
60582;SDS011;46415;47.536;19.066;2024-03-07T09:58:51;4.25;;;3.87;;
60582;SDS011;46415;47.536;19.066;2024-03-07T10:01:55;4.75;;;4.20;;
60582;SDS011;46415;47.536;19.066;2024-03-07T10:05:00;5.12;;;4.30;;
60582;SDS011;46415;47.536;19.066;2024-03-07T10:08:04;4.12;;;3.72;;
60582;SDS011;46415;47.536;19.066;2024-03-07T10:11:07;4.47;;;3.67;;
60582;SDS011;46415;47.536;19.066;2024-03-07T10:14:11;5.87;;;4.45;;
60582;SDS011;46415;47.536;19.066;2024-03-07T10:17:14;6.35;;;4.57;;
60582;SDS011;46415;47.536;19.066;2024-03-07T10:20:18;5.10;;;4.00;;
60582;SDS011;46415;47.536;19.066;2024-03-07T10:26:28;7.82;;;4.32;;
60582;SDS011;46415;47.536;19.066;2024-03-07T10:29:32;7.28;;;5.15;;
60582;SDS011;46415;47.536;19.066;2024-03-07T10:32:35;5.95;;;4.53;;
60582;SDS011;46415;47.536;19.066;2024-03-07T10:35:40;6.93;;;4.85;;
60582;SDS011;46415;47.536;19.066;2024-03-07T10:38:43;5.25;;;4.62;;
60582;SDS011;46415;47.536;19.066;2024-03-07T10:41:47;8.27;;;5.00;;
60582;SDS011;46415;47.536;19.066;2024-03-07T10:44:51;4.97;;;4.18;;
60582;SDS011;46415;47.536;19.066;2024-03-07T10:47:59;4.87;;;4.37;;
60582;SDS011;46415;47.536;19.066;2024-03-07T10:54:24;6.50;;;4.35;;
60582;SDS011;46415;47.536;19.066;2024-03-07T10:57:51;4.40;;;3.85;;
60582;SDS011;46415;47.536;19.066;2024-03-07T11:00:58;5.18;;;4.55;;
60582;SDS011;46415;47.536;19.066;2024-03-07T11:04:06;5.60;;;4.75;;
60582;SDS011;46415;47.536;19.066;2024-03-07T11:07:10;5.82;;;4.43;;
60582;SDS011;46415;47.536;19.066;2024-03-07T11:10:13;5.50;;;4.20;;
60582;SDS011;46415;47.536;19.066;2024-03-07T11:13:20;7.57;;;5.32;;
60582;SDS011;46415;47.536;19.066;2024-03-07T11:16:23;6.62;;;4.95;;
60582;SDS011;46415;47.536;19.066;2024-03-07T11:19:26;6.25;;;4.75;;
60582;SDS011;46415;47.536;19.066;2024-03-07T11:22:31;6.65;;;5.05;;
60582;SDS011;46415;47.536;19.066;2024-03-07T11:25:37;5.90;;;4.97;;
60582;SDS011;46415;47.536;19.066;2024-03-07T11:28:41;6.93;;;5.15;;
60582;SDS011;46415;47.536;19.066;2024-03-07T11:31:45;4.80;;;4.22;;
60582;SDS011;46415;47.536;19.066;2024-03-07T11:34:48;4.90;;;4.37;;
60582;SDS011;46415;47.536;19.066;2024-03-07T11:37:56;6.22;;;5.37;;
60582;SDS011;46415;47.536;19.066;2024-03-07T11:41:00;6.20;;;4.87;;
60582;SDS011;46415;47.536;19.066;2024-03-07T11:44:08;5.68;;;4.70;;
60582;SDS011;46415;47.536;19.066;2024-03-07T11:47:14;5.90;;;5.22;;
60582;SDS011;46415;47.536;19.066;2024-03-07T11:50:19;6.87;;;5.43;;
60582;SDS011;46415;47.536;19.066;2024-03-07T11:53:22;6.40;;;5.25;;
60582;SDS011;46415;47.536;19.066;2024-03-07T11:56:25;6.15;;;5.07;;
60582;SDS011;46415;47.536;19.066;2024-03-07T11:59:28;8.73;;;4.85;;
60582;SDS011;46415;47.536;19.066;2024-03-07T12:02:40;7.80;;;5.40;;
60582;SDS011;46415;47.536;19.066;2024-03-07T12:05:44;6.32;;;4.68;;
60582;SDS011;46415;47.536;19.066;2024-03-07T12:08:48;6.70;;;4.65;;
60582;SDS011;46415;47.536;19.066;2024-03-07T12:11:52;6.80;;;4.72;;
60582;SDS011;46415;47.536;19.066;2024-03-07T12:14:56;7.30;;;5.47;;
60582;SDS011;46415;47.536;19.066;2024-03-07T12:18:00;5.72;;;4.85;;
60582;SDS011;46415;47.536;19.066;2024-03-07T12:21:04;6.82;;;5.65;;
60582;SDS011;46415;47.536;19.066;2024-03-07T12:24:12;6.10;;;4.93;;
60582;SDS011;46415;47.536;19.066;2024-03-07T12:27:16;7.70;;;4.72;;
60582;SDS011;46415;47.536;19.066;2024-03-07T12:30:19;7.20;;;5.55;;
60582;SDS011;46415;47.536;19.066;2024-03-07T12:33:24;6.15;;;5.18;;
60582;SDS011;46415;47.536;19.066;2024-03-07T12:36:30;6.97;;;5.37;;
60582;SDS011;46415;47.536;19.066;2024-03-07T12:39:37;7.55;;;5.30;;
60582;SDS011;46415;47.536;19.066;2024-03-07T12:42:51;8.60;;;5.47;;
60582;SDS011;46415;47.536;19.066;2024-03-07T12:45:55;7.70;;;5.40;;
60582;SDS011;46415;47.536;19.066;2024-03-07T12:49:01;7.00;;;5.05;;
60582;SDS011;46415;47.536;19.066;2024-03-07T12:52:05;7.62;;;5.07;;
60582;SDS011;46415;47.536;19.066;2024-03-07T12:55:11;6.40;;;4.90;;
60582;SDS011;46415;47.536;19.066;2024-03-07T12:58:16;6.82;;;5.12;;
60582;SDS011;46415;47.536;19.066;2024-03-07T13:01:19;5.80;;;5.20;;
60582;SDS011;46415;47.536;19.066;2024-03-07T13:04:23;6.97;;;5.00;;
60582;SDS011;46415;47.536;19.066;2024-03-07T13:07:30;6.20;;;4.93;;
60582;SDS011;46415;47.536;19.066;2024-03-07T13:10:33;6.78;;;4.90;;
60582;SDS011;46415;47.536;19.066;2024-03-07T13:13:37;7.75;;;5.05;;
60582;SDS011;46415;47.536;19.066;2024-03-07T13:16:40;7.45;;;5.20;;
60582;SDS011;46415;47.536;19.066;2024-03-07T13:19:45;7.35;;;5.45;;
60582;SDS011;46415;47.536;19.066;2024-03-07T13:22:52;7.75;;;5.32;;
60582;SDS011;46415;47.536;19.066;2024-03-07T13:25:55;7.15;;;5.32;;
60582;SDS011;46415;47.536;19.066;2024-03-07T13:28:58;6.40;;;5.35;;
60582;SDS011;46415;47.536;19.066;2024-03-07T13:32:04;7.00;;;5.05;;
60582;SDS011;46415;47.536;19.066;2024-03-07T13:35:07;7.78;;;5.20;;
60582;SDS011;46415;47.536;19.066;2024-03-07T13:38:14;6.70;;;5.13;;
60582;SDS011;46415;47.536;19.066;2024-03-07T13:41:19;9.45;;;5.60;;
60582;SDS011;46415;47.536;19.066;2024-03-07T13:44:25;6.90;;;5.62;;
60582;SDS011;46415;47.536;19.066;2024-03-07T13:47:32;8.13;;;5.05;;
60582;SDS011;46415;47.536;19.066;2024-03-07T13:50:35;8.82;;;5.45;;
60582;SDS011;46415;47.536;19.066;2024-03-07T13:53:58;9.05;;;5.40;;
60582;SDS011;46415;47.536;19.066;2024-03-07T14:14:21;8.40;;;5.43;;
60582;SDS011;46415;47.536;19.066;2024-03-07T14:17:39;8.50;;;5.30;;
60582;SDS011;46415;47.536;19.066;2024-03-07T14:28:15;7.47;;;5.37;;
60582;SDS011;46415;47.536;19.066;2024-03-07T14:31:32;7.87;;;5.60;;
60582;SDS011;46415;47.536;19.066;2024-03-07T14:38:26;6.15;;;4.87;;
60582;SDS011;46415;47.536;19.066;2024-03-07T14:44:57;7.28;;;5.25;;
60582;SDS011;46415;47.536;19.066;2024-03-07T14:48:00;6.72;;;4.85;;
60582;SDS011;46415;47.536;19.066;2024-03-07T14:51:04;7.28;;;4.87;;
60582;SDS011;46415;47.536;19.066;2024-03-07T14:54:09;7.30;;;4.87;;
60582;SDS011;46415;47.536;19.066;2024-03-07T14:57:13;8.70;;;5.62;;
60582;SDS011;46415;47.536;19.066;2024-03-07T15:00:16;8.75;;;5.30;;
60582;SDS011;46415;47.536;19.066;2024-03-07T15:03:35;7.50;;;4.90;;
60582;SDS011;46415;47.536;19.066;2024-03-07T15:06:41;6.72;;;4.97;;
60582;SDS011;46415;47.536;19.066;2024-03-07T15:09:45;6.18;;;4.57;;
60582;SDS011;46415;47.536;19.066;2024-03-07T15:12:47;7.60;;;5.05;;
60582;SDS011;46415;47.536;19.066;2024-03-07T15:15:51;7.05;;;4.93;;
60582;SDS011;46415;47.536;19.066;2024-03-07T15:18:53;7.35;;;5.35;;
60582;SDS011;46415;47.536;19.066;2024-03-07T15:21:56;8.25;;;5.22;;
60582;SDS011;46415;47.536;19.066;2024-03-07T15:24:59;8.30;;;5.32;;
60582;SDS011;46415;47.536;19.066;2024-03-07T15:28:04;7.93;;;5.22;;
60582;SDS011;46415;47.536;19.066;2024-03-07T15:31:07;8.10;;;5.28;;
60582;SDS011;46415;47.536;19.066;2024-03-07T15:34:15;7.35;;;5.55;;
60582;SDS011;46415;47.536;19.066;2024-03-07T15:37:19;7.45;;;5.12;;
60582;SDS011;46415;47.536;19.066;2024-03-07T15:40:25;6.45;;;4.60;;
60582;SDS011;46415;47.536;19.066;2024-03-07T15:43:30;8.82;;;6.00;;
60582;SDS011;46415;47.536;19.066;2024-03-07T15:46:33;8.65;;;5.57;;
60582;SDS011;46415;47.536;19.066;2024-03-07T15:49:37;8.02;;;5.60;;
60582;SDS011;46415;47.536;19.066;2024-03-07T15:52:41;8.73;;;5.70;;
60582;SDS011;46415;47.536;19.066;2024-03-07T15:55:44;10.77;;;5.72;;
60582;SDS011;46415;47.536;19.066;2024-03-07T15:58:47;8.00;;;5.43;;
60582;SDS011;46415;47.536;19.066;2024-03-07T16:01:50;8.00;;;5.80;;
60582;SDS011;46415;47.536;19.066;2024-03-07T16:04:53;9.93;;;6.32;;
60582;SDS011;46415;47.536;19.066;2024-03-07T16:07:59;10.55;;;5.85;;
60582;SDS011;46415;47.536;19.066;2024-03-07T16:11:03;9.43;;;5.57;;
60582;SDS011;46415;47.536;19.066;2024-03-07T16:14:06;9.27;;;6.22;;
60582;SDS011;46415;47.536;19.066;2024-03-07T16:17:09;7.82;;;5.62;;
60582;SDS011;46415;47.536;19.066;2024-03-07T16:20:12;9.98;;;5.60;;
60582;SDS011;46415;47.536;19.066;2024-03-07T16:23:15;7.40;;;5.32;;
60582;SDS011;46415;47.536;19.066;2024-03-07T16:26:19;7.47;;;5.43;;
60582;SDS011;46415;47.536;19.066;2024-03-07T16:29:23;8.70;;;5.80;;
60582;SDS011;46415;47.536;19.066;2024-03-07T16:32:26;7.90;;;5.50;;
60582;SDS011;46415;47.536;19.066;2024-03-07T16:35:30;10.30;;;5.70;;
60582;SDS011;46415;47.536;19.066;2024-03-07T16:38:36;8.75;;;6.07;;
60582;SDS011;46415;47.536;19.066;2024-03-07T16:41:39;8.88;;;6.03;;
60582;SDS011;46415;47.536;19.066;2024-03-07T16:44:43;10.18;;;6.22;;
60582;SDS011;46415;47.536;19.066;2024-03-07T16:47:47;7.57;;;5.45;;
60582;SDS011;46415;47.536;19.066;2024-03-07T16:50:53;6.75;;;5.10;;
60582;SDS011;46415;47.536;19.066;2024-03-07T16:53:57;6.72;;;4.87;;
60582;SDS011;46415;47.536;19.066;2024-03-07T16:57:00;5.53;;;4.62;;
60582;SDS011;46415;47.536;19.066;2024-03-07T17:00:05;6.97;;;4.70;;
60582;SDS011;46415;47.536;19.066;2024-03-07T17:03:20;10.15;;;4.90;;
60582;SDS011;46415;47.536;19.066;2024-03-07T17:06:23;6.75;;;4.93;;
60582;SDS011;46415;47.536;19.066;2024-03-07T17:09:26;7.32;;;4.47;;
60582;SDS011;46415;47.536;19.066;2024-03-07T17:12:29;7.93;;;5.10;;
60582;SDS011;46415;47.536;19.066;2024-03-07T17:15:32;10.13;;;5.35;;
60582;SDS011;46415;47.536;19.066;2024-03-07T17:18:35;8.18;;;5.65;;
60582;SDS011;46415;47.536;19.066;2024-03-07T17:21:38;6.62;;;5.10;;
60582;SDS011;46415;47.536;19.066;2024-03-07T17:24:41;8.77;;;5.30;;
60582;SDS011;46415;47.536;19.066;2024-03-07T17:27:46;7.03;;;4.70;;
60582;SDS011;46415;47.536;19.066;2024-03-07T17:30:52;9.50;;;5.53;;
60582;SDS011;46415;47.536;19.066;2024-03-07T17:33:58;9.10;;;5.75;;
60582;SDS011;46415;47.536;19.066;2024-03-07T17:37:01;8.40;;;6.00;;
60582;SDS011;46415;47.536;19.066;2024-03-07T17:40:07;8.13;;;5.10;;
60582;SDS011;46415;47.536;19.066;2024-03-07T17:43:18;7.78;;;5.07;;
60582;SDS011;46415;47.536;19.066;2024-03-07T17:46:21;8.77;;;5.15;;
60582;SDS011;46415;47.536;19.066;2024-03-07T17:49:28;8.10;;;5.60;;
60582;SDS011;46415;47.536;19.066;2024-03-07T17:52:31;8.38;;;5.53;;
60582;SDS011;46415;47.536;19.066;2024-03-07T17:55:34;7.12;;;5.97;;
60582;SDS011;46415;47.536;19.066;2024-03-07T17:58:37;9.13;;;5.62;;
60582;SDS011;46415;47.536;19.066;2024-03-07T18:01:40;9.00;;;5.90;;
60582;SDS011;46415;47.536;19.066;2024-03-07T18:04:45;7.87;;;5.57;;
60582;SDS011;46415;47.536;19.066;2024-03-07T18:07:55;9.00;;;5.85;;
60582;SDS011;46415;47.536;19.066;2024-03-07T18:11:17;9.93;;;6.93;;
60582;SDS011;46415;47.536;19.066;2024-03-07T18:14:22;9.50;;;5.87;;
60582;SDS011;46415;47.536;19.066;2024-03-07T18:17:25;9.73;;;6.18;;
60582;SDS011;46415;47.536;19.066;2024-03-07T18:20:28;9.35;;;6.15;;
60582;SDS011;46415;47.536;19.066;2024-03-07T18:23:31;9.10;;;6.32;;
60582;SDS011;46415;47.536;19.066;2024-03-07T18:26:34;9.60;;;6.75;;
60582;SDS011;46415;47.536;19.066;2024-03-07T18:29:38;9.80;;;6.07;;
60582;SDS011;46415;47.536;19.066;2024-03-07T18:32:41;7.95;;;5.72;;
60582;SDS011;46415;47.536;19.066;2024-03-07T18:35:45;7.95;;;5.95;;
60582;SDS011;46415;47.536;19.066;2024-03-07T18:38:49;9.40;;;5.95;;
60582;SDS011;46415;47.536;19.066;2024-03-07T18:41:56;7.82;;;5.50;;
60582;SDS011;46415;47.536;19.066;2024-03-07T18:45:00;9.20;;;5.53;;
60582;SDS011;46415;47.536;19.066;2024-03-07T18:48:11;9.48;;;6.05;;
60582;SDS011;46415;47.536;19.066;2024-03-07T18:51:16;7.07;;;5.12;;